Norfolk, Virginia
Traffic Map
Current Weather Conditions
Norfolk, Virginia
Clear
Clear
42°
Feels Like: 37°
Wind Chill: 37° Ceiling: Unl
Heat Index: 42° Visibility: 10mi
Dew Point: 23° Wind: 8mph
Humidity: 47% Direction: 40° (NE)
Pressure: 30.58in Gusts: 0mph
Raw Report DataKORF 232051Z 04007KT 10SM CLR 06/M05 A3058 RMK AO2 SLP356 T00561050 58015
Traffic Incident Summary
Active as of:
Severity:
Category:
InformationThere was an issue retrieving the traffic information for this location. Please try a different location or try again shortly.
Advertisements
Track Severe Weather on mobile